sensor_id;sensor_type;location;lat;lon;timestamp;temperature;humidity
19166;DHT22;9715;48.816;10.520;2022-07-10T00:00:10;17.60;99.90
19166;DHT22;9715;48.816;10.520;2022-07-10T00:02:40;17.50;99.90
19166;DHT22;9715;48.816;10.520;2022-07-10T00:05:10;17.50;99.90
19166;DHT22;9715;48.816;10.520;2022-07-10T00:07:46;17.40;99.90
19166;DHT22;9715;48.816;10.520;2022-07-10T00:10:15;17.50;99.90
19166;DHT22;9715;48.816;10.520;2022-07-10T00:12:43;17.50;99.90
19166;DHT22;9715;48.816;10.520;2022-07-10T00:15:12;17.50;99.90
19166;DHT22;9715;48.816;10.520;2022-07-10T00:17:43;17.50;99.90
19166;DHT22;9715;48.816;10.520;2022-07-10T00:20:12;17.40;99.90
19166;DHT22;9715;48.816;10.520;2022-07-10T00:22:41;17.40;99.90
19166;DHT22;9715;48.816;10.520;2022-07-10T00:25:11;17.40;99.90
19166;DHT22;9715;48.816;10.520;2022-07-10T00:27:41;17.40;99.90
19166;DHT22;9715;48.816;10.520;2022-07-10T00:30:10;17.40;99.90
19166;DHT22;9715;48.816;10.520;2022-07-10T00:32:38;17.40;99.90
19166;DHT22;9715;48.816;10.520;2022-07-10T00:35:09;17.40;99.90
19166;DHT22;9715;48.816;10.520;2022-07-10T00:37:37;17.40;99.90
19166;DHT22;9715;48.816;10.520;2022-07-10T00:40:07;17.40;99.90
19166;DHT22;9715;48.816;10.520;2022-07-10T00:42:35;17.30;99.90
19166;DHT22;9715;48.816;10.520;2022-07-10T00:45:05;17.30;99.90
19166;DHT22;9715;48.816;10.520;2022-07-10T00:47:33;17.20;99.90
19166;DHT22;9715;48.816;10.520;2022-07-10T00:50:02;17.20;99.90
19166;DHT22;9715;48.816;10.520;2022-07-10T00:52:32;17.10;99.90
19166;DHT22;9715;48.816;10.520;2022-07-10T00:55:06;17.10;99.90
19166;DHT22;9715;48.816;10.520;2022-07-10T00:57:36;17.10;99.90
19166;DHT22;9715;48.816;10.520;2022-07-10T01:00:07;17.00;99.90
19166;DHT22;9715;48.816;10.520;2022-07-10T01:02:38;17.00;99.90
19166;DHT22;9715;48.816;10.520;2022-07-10T01:05:09;16.90;99.90
19166;DHT22;9715;48.816;10.520;2022-07-10T01:07:39;16.80;99.90
19166;DHT22;9715;48.816;10.520;2022-07-10T01:10:08;16.80;99.90
19166;DHT22;9715;48.816;10.520;2022-07-10T01:12:36;16.80;99.90
19166;DHT22;9715;48.816;10.520;2022-07-10T01:15:06;16.70;99.90
19166;DHT22;9715;48.816;10.520;2022-07-10T01:17:35;16.70;99.90
19166;DHT22;9715;48.816;10.520;2022-07-10T01:20:05;16.60;99.90
19166;DHT22;9715;48.816;10.520;2022-07-10T01:22:36;16.60;99.90
19166;DHT22;9715;48.816;10.520;2022-07-10T01:25:05;16.60;99.90
19166;DHT22;9715;48.816;10.520;2022-07-10T01:27:34;16.50;99.90
19166;DHT22;9715;48.816;10.520;2022-07-10T01:30:02;16.50;99.90
19166;DHT22;9715;48.816;10.520;2022-07-10T01:32:37;16.50;99.90
19166;DHT22;9715;48.816;10.520;2022-07-10T01:35:07;16.40;99.90
19166;DHT22;9715;48.816;10.520;2022-07-10T01:37:37;16.40;99.90
19166;DHT22;9715;48.816;10.520;2022-07-10T01:40:06;16.40;99.90
19166;DHT22;9715;48.816;10.520;2022-07-10T01:42:34;16.40;99.90
19166;DHT22;9715;48.816;10.520;2022-07-10T01:45:05;16.30;99.90
19166;DHT22;9715;48.816;10.520;2022-07-10T01:47:34;16.30;99.90
19166;DHT22;9715;48.816;10.520;2022-07-10T01:50:03;16.20;99.90
19166;DHT22;9715;48.816;10.520;2022-07-10T01:52:32;16.20;99.90
19166;DHT22;9715;48.816;10.520;2022-07-10T01:55:02;16.20;99.90
19166;DHT22;9715;48.816;10.520;2022-07-10T01:57:31;16.20;99.90
19166;DHT22;9715;48.816;10.520;2022-07-10T02:00:00;16.10;99.90
19166;DHT22;9715;48.816;10.520;2022-07-10T02:02:29;16.10;99.90
19166;DHT22;9715;48.816;10.520;2022-07-10T02:04:57;16.00;99.90
19166;DHT22;9715;48.816;10.520;2022-07-10T02:07:24;16.00;99.90
19166;DHT22;9715;48.816;10.520;2022-07-10T02:09:53;16.00;99.90
19166;DHT22;9715;48.816;10.520;2022-07-10T02:12:23;15.90;99.90
19166;DHT22;9715;48.816;10.520;2022-07-10T02:14:52;15.90;99.90
19166;DHT22;9715;48.816;10.520;2022-07-10T02:17:23;15.90;99.90
19166;DHT22;9715;48.816;10.520;2022-07-10T02:19:51;15.80;99.90
19166;DHT22;9715;48.816;10.520;2022-07-10T02:22:19;15.80;99.90
19166;DHT22;9715;48.816;10.520;2022-07-10T02:24:48;15.80;99.90
19166;DHT22;9715;48.816;10.520;2022-07-10T02:27:16;15.80;99.90
19166;DHT22;9715;48.816;10.520;2022-07-10T02:29:46;15.70;99.90
19166;DHT22;9715;48.816;10.520;2022-07-10T02:32:14;15.70;99.90
19166;DHT22;9715;48.816;10.520;2022-07-10T02:34:42;15.60;99.90
19166;DHT22;9715;48.816;10.520;2022-07-10T02:37:11;15.60;99.90
19166;DHT22;9715;48.816;10.520;2022-07-10T02:39:39;15.60;99.90
19166;DHT22;9715;48.816;10.520;2022-07-10T02:42:07;15.50;99.90
19166;DHT22;9715;48.816;10.520;2022-07-10T02:44:35;15.50;99.90
19166;DHT22;9715;48.816;10.520;2022-07-10T02:47:05;15.50;99.90
19166;DHT22;9715;48.816;10.520;2022-07-10T02:49:34;15.50;99.90
19166;DHT22;9715;48.816;10.520;2022-07-10T02:52:03;15.40;99.90
19166;DHT22;9715;48.816;10.520;2022-07-10T02:54:31;15.40;99.90
19166;DHT22;9715;48.816;10.520;2022-07-10T02:57:00;15.40;99.90
19166;DHT22;9715;48.816;10.520;2022-07-10T02:59:28;15.40;99.90
19166;DHT22;9715;48.816;10.520;2022-07-10T03:01:56;15.40;99.90
19166;DHT22;9715;48.816;10.520;2022-07-10T03:04:26;15.40;99.90
19166;DHT22;9715;48.816;10.520;2022-07-10T03:06:54;15.40;99.90
19166;DHT22;9715;48.816;10.520;2022-07-10T03:09:23;15.30;99.90
19166;DHT22;9715;48.816;10.520;2022-07-10T03:11:52;15.30;99.90
19166;DHT22;9715;48.816;10.520;2022-07-10T03:14:20;15.30;99.90
19166;DHT22;9715;48.816;10.520;2022-07-10T03:16:48;15.30;99.90
19166;DHT22;9715;48.816;10.520;2022-07-10T03:19:17;15.20;99.90
19166;DHT22;9715;48.816;10.520;2022-07-10T03:21:47;15.20;99.90
19166;DHT22;9715;48.816;10.520;2022-07-10T03:24:15;15.10;99.90
19166;DHT22;9715;48.816;10.520;2022-07-10T03:26:45;15.20;99.90
19166;DHT22;9715;48.816;10.520;2022-07-10T03:29:13;15.20;99.90
19166;DHT22;9715;48.816;10.520;2022-07-10T03:31:48;15.10;99.90
19166;DHT22;9715;48.816;10.520;2022-07-10T03:34:16;15.10;99.90
19166;DHT22;9715;48.816;10.520;2022-07-10T03:36:44;15.10;99.90
19166;DHT22;9715;48.816;10.520;2022-07-10T03:39:13;15.10;99.90
19166;DHT22;9715;48.816;10.520;2022-07-10T03:41:42;15.00;99.90
19166;DHT22;9715;48.816;10.520;2022-07-10T03:44:10;15.10;99.90
19166;DHT22;9715;48.816;10.520;2022-07-10T03:46:39;15.00;99.90
19166;DHT22;9715;48.816;10.520;2022-07-10T03:49:07;15.00;99.90
19166;DHT22;9715;48.816;10.520;2022-07-10T03:51:36;15.00;99.90
19166;DHT22;9715;48.816;10.520;2022-07-10T03:54:04;15.00;99.90
19166;DHT22;9715;48.816;10.520;2022-07-10T03:56:34;15.00;99.90
19166;DHT22;9715;48.816;10.520;2022-07-10T03:59:19;15.00;99.90
19166;DHT22;9715;48.816;10.520;2022-07-10T04:01:47;15.00;99.90
19166;DHT22;9715;48.816;10.520;2022-07-10T04:04:15;15.00;99.90
19166;DHT22;9715;48.816;10.520;2022-07-10T04:06:44;15.00;99.90
19166;DHT22;9715;48.816;10.520;2022-07-10T04:09:12;15.00;99.90
19166;DHT22;9715;48.816;10.520;2022-07-10T04:11:42;15.00;99.90
19166;DHT22;9715;48.816;10.520;2022-07-10T04:14:10;15.00;99.90
19166;DHT22;9715;48.816;10.520;2022-07-10T04:16:39;15.00;99.90
19166;DHT22;9715;48.816;10.520;2022-07-10T04:19:07;15.00;99.90
19166;DHT22;9715;48.816;10.520;2022-07-10T04:21:36;15.00;99.90
19166;DHT22;9715;48.816;10.520;2022-07-10T04:24:05;15.10;99.90
19166;DHT22;9715;48.816;10.520;2022-07-10T04:26:33;15.10;99.90
19166;DHT22;9715;48.816;10.520;2022-07-10T04:29:03;15.10;99.90
19166;DHT22;9715;48.816;10.520;2022-07-10T04:31:32;15.10;99.90
19166;DHT22;9715;48.816;10.520;2022-07-10T04:34:00;15.20;99.90
19166;DHT22;9715;48.816;10.520;2022-07-10T04:36:29;15.20;99.90
19166;DHT22;9715;48.816;10.520;2022-07-10T04:38:57;15.20;99.90
19166;DHT22;9715;48.816;10.520;2022-07-10T04:41:26;15.20;99.90
19166;DHT22;9715;48.816;10.520;2022-07-10T04:43:54;15.20;99.90
19166;DHT22;9715;48.816;10.520;2022-07-10T04:46:24;15.20;99.90
19166;DHT22;9715;48.816;10.520;2022-07-10T04:48:52;15.20;99.90
19166;DHT22;9715;48.816;10.520;2022-07-10T04:51:21;15.20;99.90
19166;DHT22;9715;48.816;10.520;2022-07-10T04:53:50;15.20;99.90
19166;DHT22;9715;48.816;10.520;2022-07-10T04:56:18;15.20;99.90
19166;DHT22;9715;48.816;10.520;2022-07-10T04:58:47;15.20;99.90
19166;DHT22;9715;48.816;10.520;2022-07-10T05:01:18;15.20;99.90
19166;DHT22;9715;48.816;10.520;2022-07-10T05:03:48;15.30;99.90
19166;DHT22;9715;48.816;10.520;2022-07-10T05:06:16;15.30;99.90
19166;DHT22;9715;48.816;10.520;2022-07-10T05:08:45;15.30;99.90
19166;DHT22;9715;48.816;10.520;2022-07-10T05:11:13;15.30;99.90
19166;DHT22;9715;48.816;10.520;2022-07-10T05:13:42;15.30;99.90
19166;DHT22;9715;48.816;10.520;2022-07-10T05:16:13;15.30;99.90
19166;DHT22;9715;48.816;10.520;2022-07-10T05:18:48;15.30;99.90
19166;DHT22;9715;48.816;10.520;2022-07-10T05:21:16;15.30;99.90
19166;DHT22;9715;48.816;10.520;2022-07-10T05:23:44;15.30;99.90
19166;DHT22;9715;48.816;10.520;2022-07-10T05:26:13;15.30;99.90
19166;DHT22;9715;48.816;10.520;2022-07-10T05:28:42;15.30;99.90
19166;DHT22;9715;48.816;10.520;2022-07-10T05:31:10;15.30;99.90
19166;DHT22;9715;48.816;10.520;2022-07-10T05:33:38;15.30;99.90
19166;DHT22;9715;48.816;10.520;2022-07-10T05:36:09;15.20;99.90
19166;DHT22;9715;48.816;10.520;2022-07-10T05:38:37;15.20;99.90
19166;DHT22;9715;48.816;10.520;2022-07-10T05:41:07;15.20;99.90
19166;DHT22;9715;48.816;10.520;2022-07-10T05:43:35;15.20;99.90
19166;DHT22;9715;48.816;10.520;2022-07-10T05:46:03;15.30;99.90
19166;DHT22;9715;48.816;10.520;2022-07-10T05:48:32;15.30;99.90
19166;DHT22;9715;48.816;10.520;2022-07-10T05:51:00;15.40;99.90
19166;DHT22;9715;48.816;10.520;2022-07-10T05:53:50;15.50;99.90
19166;DHT22;9715;48.816;10.520;2022-07-10T05:56:19;15.50;99.90
19166;DHT22;9715;48.816;10.520;2022-07-10T05:58:47;15.50;99.90
19166;DHT22;9715;48.816;10.520;2022-07-10T06:01:16;15.50;99.90
19166;DHT22;9715;48.816;10.520;2022-07-10T06:03:44;15.60;99.90
19166;DHT22;9715;48.816;10.520;2022-07-10T06:06:13;15.60;99.90
19166;DHT22;9715;48.816;10.520;2022-07-10T06:08:42;15.60;99.90
19166;DHT22;9715;48.816;10.520;2022-07-10T06:11:12;15.60;99.90
19166;DHT22;9715;48.816;10.520;2022-07-10T06:13:40;15.60;99.90
19166;DHT22;9715;48.816;10.520;2022-07-10T06:16:09;15.60;99.90
19166;DHT22;9715;48.816;10.520;2022-07-10T06:18:37;15.70;99.90
19166;DHT22;9715;48.816;10.520;2022-07-10T06:21:06;15.60;99.90
19166;DHT22;9715;48.816;10.520;2022-07-10T06:23:34;15.60;99.90
19166;DHT22;9715;48.816;10.520;2022-07-10T06:26:03;15.60;99.90
19166;DHT22;9715;48.816;10.520;2022-07-10T06:28:35;15.60;99.90
19166;DHT22;9715;48.816;10.520;2022-07-10T06:31:04;15.60;99.90
19166;DHT22;9715;48.816;10.520;2022-07-10T06:33:33;15.60;99.90
19166;DHT22;9715;48.816;10.520;2022-07-10T06:36:02;15.70;99.90
19166;DHT22;9715;48.816;10.520;2022-07-10T06:38:31;15.70;99.90
19166;DHT22;9715;48.816;10.520;2022-07-10T06:40:59;15.80;99.90
19166;DHT22;9715;48.816;10.520;2022-07-10T06:43:28;15.80;99.90
19166;DHT22;9715;48.816;10.520;2022-07-10T06:45:58;15.80;99.90
19166;DHT22;9715;48.816;10.520;2022-07-10T06:48:27;15.90;99.90
19166;DHT22;9715;48.816;10.520;2022-07-10T06:50:54;15.90;99.90
19166;DHT22;9715;48.816;10.520;2022-07-10T06:53:23;15.80;99.90
19166;DHT22;9715;48.816;10.520;2022-07-10T06:55:54;15.70;99.90
19166;DHT22;9715;48.816;10.520;2022-07-10T06:58:22;15.70;99.90
19166;DHT22;9715;48.816;10.520;2022-07-10T07:00:51;15.60;99.90
19166;DHT22;9715;48.816;10.520;2022-07-10T07:03:20;15.60;99.90
19166;DHT22;9715;48.816;10.520;2022-07-10T07:05:48;15.60;99.90
19166;DHT22;9715;48.816;10.520;2022-07-10T07:08:16;15.60;99.90
19166;DHT22;9715;48.816;10.520;2022-07-10T07:10:45;15.70;99.90
19166;DHT22;9715;48.816;10.520;2022-07-10T07:13:13;15.80;99.90
19166;DHT22;9715;48.816;10.520;2022-07-10T07:15:41;15.80;99.90
19166;DHT22;9715;48.816;10.520;2022-07-10T07:18:16;15.80;99.90
19166;DHT22;9715;48.816;10.520;2022-07-10T07:20:46;15.70;99.90
19166;DHT22;9715;48.816;10.520;2022-07-10T07:23:31;15.60;99.90
19166;DHT22;9715;48.816;10.520;2022-07-10T07:25:59;15.70;99.90
19166;DHT22;9715;48.816;10.520;2022-07-10T07:28:28;15.60;99.90
19166;DHT22;9715;48.816;10.520;2022-07-10T07:30:56;15.60;99.90
19166;DHT22;9715;48.816;10.520;2022-07-10T07:33:26;15.60;99.90
19166;DHT22;9715;48.816;10.520;2022-07-10T07:35:56;15.70;99.90
19166;DHT22;9715;48.816;10.520;2022-07-10T07:38:24;15.80;99.90
19166;DHT22;9715;48.816;10.520;2022-07-10T07:40:53;15.80;99.90
19166;DHT22;9715;48.816;10.520;2022-07-10T07:43:21;15.90;99.90
19166;DHT22;9715;48.816;10.520;2022-07-10T07:45:49;16.00;99.90
19166;DHT22;9715;48.816;10.520;2022-07-10T07:48:18;16.10;99.90
19166;DHT22;9715;48.816;10.520;2022-07-10T07:50:47;16.20;99.90
19166;DHT22;9715;48.816;10.520;2022-07-10T07:53:16;16.30;99.90
19166;DHT22;9715;48.816;10.520;2022-07-10T07:55:45;16.30;99.90
19166;DHT22;9715;48.816;10.520;2022-07-10T07:58:13;16.40;99.90
19166;DHT22;9715;48.816;10.520;2022-07-10T08:00:41;16.50;99.90
19166;DHT22;9715;48.816;10.520;2022-07-10T08:03:10;16.50;99.90
19166;DHT22;9715;48.816;10.520;2022-07-10T08:05:38;16.60;99.90
19166;DHT22;9715;48.816;10.520;2022-07-10T08:08:06;16.70;99.90
19166;DHT22;9715;48.816;10.520;2022-07-10T08:10:38;16.70;99.90
19166;DHT22;9715;48.816;10.520;2022-07-10T08:13:11;16.70;99.90
19166;DHT22;9715;48.816;10.520;2022-07-10T08:15:40;16.70;99.90
19166;DHT22;9715;48.816;10.520;2022-07-10T08:18:08;16.70;99.90
19166;DHT22;9715;48.816;10.520;2022-07-10T08:20:36;16.80;99.90
19166;DHT22;9715;48.816;10.520;2022-07-10T08:23:04;16.80;99.90
19166;DHT22;9715;48.816;10.520;2022-07-10T08:25:33;16.90;99.90
19166;DHT22;9715;48.816;10.520;2022-07-10T08:28:04;16.90;99.90
19166;DHT22;9715;48.816;10.520;2022-07-10T08:30:34;16.70;99.90
19166;DHT22;9715;48.816;10.520;2022-07-10T08:33:02;16.80;99.90
19166;DHT22;9715;48.816;10.520;2022-07-10T08:35:31;16.90;99.90
19166;DHT22;9715;48.816;10.520;2022-07-10T08:37:59;17.00;99.90
19166;DHT22;9715;48.816;10.520;2022-07-10T08:40:34;17.10;99.90
19166;DHT22;9715;48.816;10.520;2022-07-10T08:43:05;17.10;99.90
19166;DHT22;9715;48.816;10.520;2022-07-10T08:45:34;17.20;99.90
19166;DHT22;9715;48.816;10.520;2022-07-10T08:48:04;17.20;99.90
19166;DHT22;9715;48.816;10.520;2022-07-10T08:50:38;17.30;99.90
19166;DHT22;9715;48.816;10.520;2022-07-10T08:53:15;17.30;99.90
19166;DHT22;9715;48.816;10.520;2022-07-10T08:55:45;17.20;99.90
19166;DHT22;9715;48.816;10.520;2022-07-10T08:58:15;17.20;99.90
19166;DHT22;9715;48.816;10.520;2022-07-10T09:00:44;17.30;99.90
19166;DHT22;9715;48.816;10.520;2022-07-10T09:03:12;17.40;99.90
19166;DHT22;9715;48.816;10.520;2022-07-10T09:05:40;17.40;99.90
19166;DHT22;9715;48.816;10.520;2022-07-10T09:08:21;17.40;99.90
19166;DHT22;9715;48.816;10.520;2022-07-10T09:10:50;17.40;99.90
19166;DHT22;9715;48.816;10.520;2022-07-10T09:13:20;17.50;99.90
19166;DHT22;9715;48.816;10.520;2022-07-10T09:15:51;17.60;99.90
19166;DHT22;9715;48.816;10.520;2022-07-10T09:18:23;17.80;99.90
19166;DHT22;9715;48.816;10.520;2022-07-10T09:20:52;18.00;99.90
19166;DHT22;9715;48.816;10.520;2022-07-10T09:23:22;18.10;99.90
19166;DHT22;9715;48.816;10.520;2022-07-10T09:25:53;18.10;99.90
19166;DHT22;9715;48.816;10.520;2022-07-10T09:28:23;18.10;99.90
19166;DHT22;9715;48.816;10.520;2022-07-10T09:30:51;18.10;99.90
19166;DHT22;9715;48.816;10.520;2022-07-10T09:33:23;18.10;99.90
19166;DHT22;9715;48.816;10.520;2022-07-10T09:35:57;18.20;99.90
19166;DHT22;9715;48.816;10.520;2022-07-10T09:38:52;18.30;99.90
19166;DHT22;9715;48.816;10.520;2022-07-10T09:41:24;18.30;99.90
19166;DHT22;9715;48.816;10.520;2022-07-10T09:43:55;18.30;99.90
19166;DHT22;9715;48.816;10.520;2022-07-10T09:46:25;18.40;99.90
19166;DHT22;9715;48.816;10.520;2022-07-10T09:49:08;18.40;99.90
19166;DHT22;9715;48.816;10.520;2022-07-10T09:51:37;18.40;99.90
19166;DHT22;9715;48.816;10.520;2022-07-10T09:54:14;18.30;99.90
19166;DHT22;9715;48.816;10.520;2022-07-10T09:56:45;18.10;99.90
19166;DHT22;9715;48.816;10.520;2022-07-10T09:59:16;18.10;99.90
19166;DHT22;9715;48.816;10.520;2022-07-10T10:01:47;18.10;99.90
19166;DHT22;9715;48.816;10.520;2022-07-10T10:04:17;18.20;99.90
19166;DHT22;9715;48.816;10.520;2022-07-10T10:06:49;18.30;99.90
19166;DHT22;9715;48.816;10.520;2022-07-10T10:09:22;18.30;99.90
19166;DHT22;9715;48.816;10.520;2022-07-10T10:11:56;18.10;99.90
19166;DHT22;9715;48.816;10.520;2022-07-10T10:14:28;18.00;99.90
19166;DHT22;9715;48.816;10.520;2022-07-10T10:16:57;18.00;99.90
19166;DHT22;9715;48.816;10.520;2022-07-10T10:19:30;18.20;99.90
19166;DHT22;9715;48.816;10.520;2022-07-10T10:22:22;18.30;99.90
19166;DHT22;9715;48.816;10.520;2022-07-10T10:24:52;18.60;99.90
19166;DHT22;9715;48.816;10.520;2022-07-10T10:27:21;18.70;99.90
19166;DHT22;9715;48.816;10.520;2022-07-10T10:29:52;18.70;99.90
19166;DHT22;9715;48.816;10.520;2022-07-10T10:32:21;18.70;99.90
19166;DHT22;9715;48.816;10.520;2022-07-10T10:34:50;18.70;99.90
19166;DHT22;9715;48.816;10.520;2022-07-10T10:37:36;18.70;99.90
19166;DHT22;9715;48.816;10.520;2022-07-10T10:40:07;18.60;99.90
19166;DHT22;9715;48.816;10.520;2022-07-10T10:42:37;18.50;99.90
19166;DHT22;9715;48.816;10.520;2022-07-10T10:45:24;18.40;99.90
19166;DHT22;9715;48.816;10.520;2022-07-10T10:47:58;18.30;99.90
19166;DHT22;9715;48.816;10.520;2022-07-10T10:50:48;18.30;99.90
19166;DHT22;9715;48.816;10.520;2022-07-10T10:53:18;18.30;99.90
19166;DHT22;9715;48.816;10.520;2022-07-10T10:56:22;18.40;99.90
19166;DHT22;9715;48.816;10.520;2022-07-10T10:58:53;18.50;99.90
19166;DHT22;9715;48.816;10.520;2022-07-10T11:01:33;18.60;99.90
19166;DHT22;9715;48.816;10.520;2022-07-10T11:04:15;18.60;99.90
19166;DHT22;9715;48.816;10.520;2022-07-10T11:06:46;18.70;99.90
19166;DHT22;9715;48.816;10.520;2022-07-10T11:09:22;18.60;99.90
19166;DHT22;9715;48.816;10.520;2022-07-10T11:12:01;18.50;99.90
19166;DHT22;9715;48.816;10.520;2022-07-10T11:14:32;18.50;99.90
19166;DHT22;9715;48.816;10.520;2022-07-10T11:17:04;18.40;99.90
19166;DHT22;9715;48.816;10.520;2022-07-10T11:19:36;18.40;99.90
19166;DHT22;9715;48.816;10.520;2022-07-10T11:25:18;18.70;99.90
19166;DHT22;9715;48.816;10.520;2022-07-10T11:27:58;18.90;99.90
19166;DHT22;9715;48.816;10.520;2022-07-10T11:30:43;19.30;99.90
19166;DHT22;9715;48.816;10.520;2022-07-10T11:33:14;19.40;99.90
19166;DHT22;9715;48.816;10.520;2022-07-10T11:35:44;19.40;99.90
19166;DHT22;9715;48.816;10.520;2022-07-10T11:38:19;19.30;99.90
19166;DHT22;9715;48.816;10.520;2022-07-10T11:40:47;19.30;99.90
19166;DHT22;9715;48.816;10.520;2022-07-10T11:43:16;19.20;99.90
19166;DHT22;9715;48.816;10.520;2022-07-10T11:45:49;19.10;99.90
19166;DHT22;9715;48.816;10.520;2022-07-10T12:27:05;19.90;96.50
19166;DHT22;9715;48.816;10.520;2022-07-10T12:29:36;19.60;96.90
19166;DHT22;9715;48.816;10.520;2022-07-10T12:32:05;19.70;97.50
19166;DHT22;9715;48.816;10.520;2022-07-10T12:34:33;19.90;98.40
19166;DHT22;9715;48.816;10.520;2022-07-10T12:37:08;20.30;97.20
19166;DHT22;9715;48.816;10.520;2022-07-10T12:39:37;20.70;94.40
19166;DHT22;9715;48.816;10.520;2022-07-10T12:42:07;21.00;93.90
19166;DHT22;9715;48.816;10.520;2022-07-10T12:44:40;21.20;93.50
19166;DHT22;9715;48.816;10.520;2022-07-10T12:47:10;21.40;92.80
19166;DHT22;9715;48.816;10.520;2022-07-10T12:49:54;21.60;93.40
19166;DHT22;9715;48.816;10.520;2022-07-10T12:52:24;21.90;94.00
19166;DHT22;9715;48.816;10.520;2022-07-10T12:55:10;22.20;93.50
19166;DHT22;9715;48.816;10.520;2022-07-10T12:57:53;22.40;92.20
19166;DHT22;9715;48.816;10.520;2022-07-10T13:00:23;22.50;90.80
19166;DHT22;9715;48.816;10.520;2022-07-10T13:02:58;22.70;90.80
19166;DHT22;9715;48.816;10.520;2022-07-10T13:05:27;22.80;89.30
19166;DHT22;9715;48.816;10.520;2022-07-10T13:08:10;22.70;91.00
19166;DHT22;9715;48.816;10.520;2022-07-10T13:10:40;22.40;91.00
19166;DHT22;9715;48.816;10.520;2022-07-10T13:13:09;22.00;90.10
19166;DHT22;9715;48.816;10.520;2022-07-10T13:15:38;22.00;91.20
19166;DHT22;9715;48.816;10.520;2022-07-10T13:18:13;22.10;92.00
19166;DHT22;9715;48.816;10.520;2022-07-10T13:20:42;22.20;89.80
19166;DHT22;9715;48.816;10.520;2022-07-10T13:23:10;22.10;90.20
19166;DHT22;9715;48.816;10.520;2022-07-10T13:25:39;22.20;90.10
19166;DHT22;9715;48.816;10.520;2022-07-10T13:28:09;22.40;88.50
19166;DHT22;9715;48.816;10.520;2022-07-10T13:30:38;22.60;88.70
19166;DHT22;9715;48.816;10.520;2022-07-10T13:33:06;22.90;89.40
19166;DHT22;9715;48.816;10.520;2022-07-10T13:35:35;23.10;88.90
19166;DHT22;9715;48.816;10.520;2022-07-10T13:38:04;23.10;87.50
19166;DHT22;9715;48.816;10.520;2022-07-10T13:40:37;22.70;87.20
19166;DHT22;9715;48.816;10.520;2022-07-10T13:43:06;22.20;89.50
19166;DHT22;9715;48.816;10.520;2022-07-10T13:45:36;22.00;90.60
19166;DHT22;9715;48.816;10.520;2022-07-10T13:48:10;22.00;90.00
19166;DHT22;9715;48.816;10.520;2022-07-10T13:50:38;22.20;88.70
19166;DHT22;9715;48.816;10.520;2022-07-10T13:53:07;22.40;87.10
19166;DHT22;9715;48.816;10.520;2022-07-10T13:55:35;22.60;87.10
19166;DHT22;9715;48.816;10.520;2022-07-10T13:58:04;22.80;87.30
19166;DHT22;9715;48.816;10.520;2022-07-10T14:00:32;22.70;87.70
19166;DHT22;9715;48.816;10.520;2022-07-10T14:03:02;22.50;89.00
19166;DHT22;9715;48.816;10.520;2022-07-10T14:05:30;22.50;88.40
19166;DHT22;9715;48.816;10.520;2022-07-10T14:07:59;22.30;88.30
19166;DHT22;9715;48.816;10.520;2022-07-10T14:10:29;22.30;87.00
19166;DHT22;9715;48.816;10.520;2022-07-10T14:12:57;22.40;86.60
19166;DHT22;9715;48.816;10.520;2022-07-10T14:15:25;22.40;86.70
19166;DHT22;9715;48.816;10.520;2022-07-10T14:17:53;22.50;88.90
19166;DHT22;9715;48.816;10.520;2022-07-10T14:20:24;22.80;87.60
19166;DHT22;9715;48.816;10.520;2022-07-10T14:22:53;23.00;87.90
19166;DHT22;9715;48.816;10.520;2022-07-10T14:25:25;23.40;84.20
19166;DHT22;9715;48.816;10.520;2022-07-10T14:27:54;23.50;84.00
19166;DHT22;9715;48.816;10.520;2022-07-10T14:30:22;23.50;83.50
19166;DHT22;9715;48.816;10.520;2022-07-10T14:32:51;23.60;83.60
19166;DHT22;9715;48.816;10.520;2022-07-10T14:35:19;23.90;83.90
19166;DHT22;9715;48.816;10.520;2022-07-10T14:37:48;24.10;83.30
19166;DHT22;9715;48.816;10.520;2022-07-10T14:40:16;23.90;82.00
19166;DHT22;9715;48.816;10.520;2022-07-10T14:42:44;24.10;83.20
19166;DHT22;9715;48.816;10.520;2022-07-10T14:45:20;24.10;81.40
19166;DHT22;9715;48.816;10.520;2022-07-10T14:48:08;24.00;80.80
19166;DHT22;9715;48.816;10.520;2022-07-10T14:50:37;24.10;83.10
19166;DHT22;9715;48.816;10.520;2022-07-10T14:53:07;24.40;82.00
19166;DHT22;9715;48.816;10.520;2022-07-10T14:55:38;24.30;80.00
19166;DHT22;9715;48.816;10.520;2022-07-10T14:58:06;24.20;79.70
19166;DHT22;9715;48.816;10.520;2022-07-10T15:00:34;24.10;79.00
19166;DHT22;9715;48.816;10.520;2022-07-10T15:03:02;24.00;80.10
19166;DHT22;9715;48.816;10.520;2022-07-10T15:05:31;24.00;79.70
19166;DHT22;9715;48.816;10.520;2022-07-10T15:08:00;24.00;81.30
19166;DHT22;9715;48.816;10.520;2022-07-10T15:10:30;24.10;80.30
19166;DHT22;9715;48.816;10.520;2022-07-10T15:12:59;24.30;80.20
19166;DHT22;9715;48.816;10.520;2022-07-10T15:15:31;24.00;79.70
19166;DHT22;9715;48.816;10.520;2022-07-10T15:17:59;23.70;79.50
19166;DHT22;9715;48.816;10.520;2022-07-10T15:20:28;23.70;81.00
19166;DHT22;9715;48.816;10.520;2022-07-10T15:22:56;23.60;79.20
19166;DHT22;9715;48.816;10.520;2022-07-10T15:25:24;23.70;79.30
19166;DHT22;9715;48.816;10.520;2022-07-10T15:27:54;23.90;80.80
19166;DHT22;9715;48.816;10.520;2022-07-10T15:30:22;23.90;77.90
19166;DHT22;9715;48.816;10.520;2022-07-10T15:32:51;23.80;78.60
19166;DHT22;9715;48.816;10.520;2022-07-10T15:35:20;23.90;79.00
19166;DHT22;9715;48.816;10.520;2022-07-10T15:37:50;23.90;79.60
19166;DHT22;9715;48.816;10.520;2022-07-10T15:40:25;23.70;78.10
19166;DHT22;9715;48.816;10.520;2022-07-10T15:42:55;23.50;78.30
19166;DHT22;9715;48.816;10.520;2022-07-10T15:45:24;23.70;80.40
19166;DHT22;9715;48.816;10.520;2022-07-10T15:47:52;23.90;79.70
19166;DHT22;9715;48.816;10.520;2022-07-10T15:50:21;24.20;78.40
19166;DHT22;9715;48.816;10.520;2022-07-10T15:52:49;24.30;79.30
19166;DHT22;9715;48.816;10.520;2022-07-10T15:55:17;24.30;77.30
19166;DHT22;9715;48.816;10.520;2022-07-10T15:57:45;24.10;77.80
19166;DHT22;9715;48.816;10.520;2022-07-10T16:00:15;23.90;77.80
19166;DHT22;9715;48.816;10.520;2022-07-10T16:02:43;23.70;78.40
19166;DHT22;9715;48.816;10.520;2022-07-10T16:05:11;23.20;79.00
19166;DHT22;9715;48.816;10.520;2022-07-10T16:59:12;20.80;83.70
19166;DHT22;9715;48.816;10.520;2022-07-10T17:01:40;20.50;85.00
19166;DHT22;9715;48.816;10.520;2022-07-10T17:04:08;20.30;86.10
19166;DHT22;9715;48.816;10.520;2022-07-10T17:06:36;20.40;86.00
19166;DHT22;9715;48.816;10.520;2022-07-10T17:09:04;20.50;86.10
19166;DHT22;9715;48.816;10.520;2022-07-10T17:11:32;20.40;86.80
19166;DHT22;9715;48.816;10.520;2022-07-10T17:14:00;20.30;87.20
19166;DHT22;9715;48.816;10.520;2022-07-10T17:16:29;20.10;87.70
19166;DHT22;9715;48.816;10.520;2022-07-10T17:18:58;19.90;88.30
19166;DHT22;9715;48.816;10.520;2022-07-10T17:21:26;19.80;88.90